createdAt,value
2023-04-28T00:03:47.317Z,13.38
2023-04-28T00:08:52.555Z,17.85
2023-04-28T00:13:57.771Z,19.17
2023-04-28T00:19:05.438Z,15.48
2023-04-28T00:24:11.112Z,17.75
2023-04-28T00:29:16.291Z,24.70
2023-04-28T00:34:23.940Z,19.05
2023-04-28T00:39:29.094Z,25.83
2023-04-28T00:44:34.200Z,18.35
2023-04-28T00:49:41.875Z,18.70
2023-04-28T00:54:47.992Z,23.50
2023-04-28T00:59:53.406Z,17.63
2023-04-28T01:05:01.497Z,21.17
2023-04-28T01:10:07.297Z,18.88
2023-04-28T01:15:19.822Z,18.08
2023-04-28T01:20:27.618Z,17.92
2023-04-28T01:25:35.326Z,27.83
2023-04-28T01:30:40.656Z,21.60
2023-04-28T01:35:45.937Z,21.77
2023-04-28T01:40:53.662Z,19.08
2023-04-28T01:45:58.840Z,20.05
2023-04-28T01:51:05.591Z,20.10
2023-04-28T01:56:13.628Z,19.95
2023-04-28T02:01:18.752Z,21.83
2023-04-28T02:06:27.915Z,19.02
2023-04-28T02:11:35.754Z,19.90
2023-04-28T02:16:40.843Z,19.75
2023-04-28T02:21:46.089Z,22.60
2023-04-28T02:26:54.690Z,17.35
2023-04-28T02:32:00.117Z,19.33
2023-04-28T02:37:05.834Z,18.23
2023-04-28T02:42:13.598Z,18.77
2023-04-28T02:47:18.739Z,18.80
2023-04-28T02:52:23.880Z,20.08
2023-04-28T02:57:31.620Z,22.15
2023-04-28T03:02:36.858Z,20.13
2023-04-28T03:07:42.112Z,17.27
2023-04-28T03:12:52.107Z,20.85
2023-04-28T03:17:57.434Z,30.40
2023-04-28T03:23:02.947Z,22.65
2023-04-28T03:28:11.093Z,24.38
2023-04-28T03:33:16.544Z,22.25
2023-04-28T03:38:22.752Z,18.73
2023-04-28T03:43:30.904Z,19.83
2023-04-28T03:48:36.028Z,19.80
2023-04-28T03:53:41.089Z,19.08
2023-04-28T03:58:48.873Z,19.63
2023-04-28T04:03:54.363Z,18.23
2023-04-28T04:09:00.911Z,17.40
2023-04-28T04:14:09.914Z,18.90
2023-04-28T04:19:14.993Z,15.32
2023-04-28T04:24:20.083Z,18.27
2023-04-28T04:29:28.330Z,19.95
2023-04-28T04:34:33.525Z,15.60
2023-04-28T04:39:38.752Z,19.30
2023-04-28T04:44:46.504Z,19.10
2023-04-28T04:49:52.577Z,17.88
2023-04-28T04:54:57.840Z,22.58
2023-04-28T05:00:06.506Z,16.63
2023-04-28T05:05:20.642Z,15.73
2023-04-28T05:10:27.726Z,26.92
2023-04-28T05:15:35.623Z,15.25
2023-04-28T05:20:41.002Z,16.10
2023-04-28T05:25:46.462Z,12.93
2023-04-28T05:30:54.584Z,25.50
2023-04-28T05:41:04.687Z,17.52
2023-04-28T05:46:28.152Z,12.57
2023-04-28T05:51:35.096Z,9.38
2023-04-28T05:56:40.418Z,8.43
2023-04-28T06:01:48.536Z,9.10
2023-04-28T06:06:53.930Z,8.40
2023-04-28T06:11:59.121Z,9.20
2023-04-28T06:17:07.271Z,12.10
2023-04-28T06:22:12.915Z,6.93
2023-04-28T06:27:18.190Z,8.85
2023-04-28T06:32:30.772Z,7.93
2023-04-28T06:37:36.274Z,11.52
2023-04-28T06:42:41.478Z,6.68
2023-04-28T06:47:49.330Z,9.35
2023-04-28T06:52:54.721Z,7.22
2023-04-28T06:58:00.984Z,4.35
2023-04-28T07:03:10.950Z,5.45
2023-04-28T07:08:18.551Z,9.05
2023-04-28T07:13:23.807Z,5.10
2023-04-28T07:18:33.857Z,4.78
2023-04-28T07:23:39.045Z,5.93
2023-04-28T07:28:48.483Z,5.57
2023-04-28T07:33:57.190Z,6.03
2023-04-28T07:39:04.968Z,5.80
2023-04-28T07:44:10.763Z,5.57
2023-04-28T07:49:18.970Z,3.95
2023-04-28T07:54:24.297Z,6.85
2023-04-28T07:59:29.871Z,5.50
2023-04-28T08:04:39.280Z,7.15
2023-04-28T08:09:47.853Z,4.45
2023-04-28T08:14:53.543Z,4.22
2023-04-28T08:20:03.270Z,5.40
2023-04-28T08:25:09.715Z,6.40
2023-04-28T08:30:16.301Z,6.43
2023-04-28T08:35:24.103Z,7.82
2023-04-28T08:40:32.006Z,3.15
2023-04-28T08:45:46.610Z,5.90
2023-04-28T08:50:58.430Z,7.05
2023-04-28T08:56:04.131Z,4.50
2023-04-28T09:01:10.056Z,4.40
2023-04-28T09:06:18.152Z,4.68
2023-04-28T09:11:24.078Z,4.10
2023-04-28T09:16:43.478Z,4.40
2023-04-28T09:21:56.279Z,4.47
2023-04-28T09:27:02.658Z,4.45
2023-04-28T09:32:18.236Z,4.60
2023-04-28T09:37:27.523Z,5.00
2023-04-28T09:42:37.455Z,5.30
2023-04-28T09:47:43.842Z,4.32
2023-04-28T09:53:02.309Z,5.93
2023-04-28T09:58:10.436Z,9.38
2023-04-28T10:03:17.247Z,4.80
2023-04-28T10:08:26.558Z,4.95
2023-04-28T10:13:33.400Z,4.65
2023-04-28T10:18:40.338Z,4.90
2023-04-28T10:24:14.564Z,4.07
2023-04-28T10:29:19.875Z,3.75
2023-04-28T10:34:30.195Z,6.00
2023-04-28T10:39:39.568Z,3.70
2023-04-28T10:44:48.383Z,6.32
2023-04-28T10:50:12.355Z,9.23
2023-04-28T10:55:34.226Z,5.10
2023-04-28T11:00:41.126Z,6.30
2023-04-28T11:06:23.174Z,5.28
2023-04-28T11:11:31.761Z,8.57
2023-04-28T11:16:38.175Z,9.20
2023-04-28T11:21:43.591Z,5.63
2023-04-28T11:26:51.771Z,5.63
2023-04-28T11:31:57.356Z,4.53
2023-04-28T11:37:03.548Z,4.68
2023-04-28T11:42:17.778Z,6.43
2023-04-28T11:47:34.231Z,8.25
2023-04-28T11:52:40.322Z,4.97
2023-04-28T11:57:48.798Z,4.93
2023-04-28T12:02:54.456Z,5.32
2023-04-28T12:08:00.581Z,5.75
2023-04-28T12:13:23.509Z,4.40
2023-04-28T12:18:28.597Z,7.05
2023-04-28T12:23:34.917Z,7.78
2023-04-28T12:28:44.024Z,5.30
2023-04-28T12:33:49.447Z,3.90
2023-04-28T12:38:54.906Z,6.72
2023-04-28T12:44:02.802Z,6.50
2023-04-28T12:49:08.331Z,6.90
2023-04-28T12:54:13.912Z,6.00
2023-04-28T12:59:23.845Z,5.20
2023-04-28T13:04:30.081Z,4.38
2023-04-28T13:09:37.346Z,4.72
2023-04-28T13:14:47.153Z,4.95
2023-04-28T13:19:52.346Z,5.93
2023-04-28T13:24:57.586Z,6.05
2023-04-28T13:30:06.497Z,5.18
2023-04-28T13:35:12.895Z,6.60
2023-04-28T13:40:18.631Z,4.80
2023-04-28T13:45:27.099Z,7.07
2023-04-28T13:50:32.895Z,5.45
2023-04-28T13:55:38.881Z,4.70
2023-04-28T14:00:47.749Z,6.15
2023-04-28T14:05:53.621Z,4.95
2023-04-28T14:10:59.524Z,5.70
2023-04-28T14:16:09.834Z,6.47
2023-04-28T14:21:20.969Z,5.72
2023-04-28T14:26:33.190Z,5.22
2023-04-28T14:31:42.470Z,8.15
2023-04-28T14:36:49.340Z,7.18
2023-04-28T14:41:55.111Z,6.32
2023-04-28T14:47:03.487Z,4.78
2023-04-28T14:52:11.780Z,7.07
2023-04-28T14:57:17.795Z,6.72
2023-04-28T15:02:30.931Z,12.98
2023-04-28T15:07:36.818Z,8.57
2023-04-28T15:12:43.021Z,11.00
2023-04-28T15:17:52.195Z,6.75
2023-04-28T15:22:58.051Z,8.82
2023-04-28T15:28:05.016Z,8.23
2023-04-28T15:33:18.244Z,7.93
2023-04-28T15:38:24.108Z,6.68
2023-04-28T15:43:29.938Z,6.95
2023-04-28T15:48:39.389Z,6.38
2023-04-28T15:53:46.221Z,5.20
2023-04-28T15:58:52.104Z,6.07
2023-04-28T16:04:02.712Z,5.15
2023-04-28T16:09:09.420Z,7.90
2023-04-28T16:14:17.506Z,10.98
2023-04-28T16:19:27.033Z,5.93
2023-04-28T16:24:33.098Z,10.40
2023-04-28T16:29:39.012Z,8.80
2023-04-28T16:34:47.418Z,6.18
2023-04-28T16:39:53.688Z,9.63
2023-04-28T16:45:01.962Z,8.07
2023-04-28T16:50:12.041Z,8.18
2023-04-28T16:55:20.034Z,5.43
2023-04-28T17:00:26.387Z,9.70
2023-04-28T17:05:36.218Z,16.25
2023-04-28T17:10:42.123Z,17.67
2023-04-28T17:15:51.156Z,10.73
2023-04-28T17:21:01.156Z,9.38
2023-04-28T17:26:07.796Z,12.98
2023-04-28T17:31:16.759Z,6.80
2023-04-28T17:36:27.638Z,10.93
2023-04-28T17:41:33.704Z,5.20
2023-04-28T17:46:39.997Z,5.10
2023-04-28T17:51:48.805Z,9.05
2023-04-28T17:56:55.933Z,14.48
2023-04-28T18:02:02.099Z,11.90
2023-04-28T18:07:13.088Z,18.92
2023-04-28T18:12:21.990Z,9.75
2023-04-28T18:17:29.999Z,8.05
2023-04-28T18:22:38.846Z,14.45
2023-04-28T18:27:44.980Z,13.40
2023-04-28T18:32:52.101Z,11.13
2023-04-28T18:38:04.191Z,8.73
2023-04-28T18:43:15.746Z,8.13
2023-04-28T18:48:22.183Z,8.85
2023-04-28T18:53:32.175Z,12.95
2023-04-28T18:58:38.390Z,12.27
2023-04-28T19:03:45.931Z,14.75
2023-04-28T19:14:03.127Z,20.05
2023-04-28T19:19:11.212Z,9.73
2023-04-28T19:24:21.209Z,9.20
2023-04-28T19:29:28.674Z,8.40
2023-04-28T19:34:34.625Z,9.18
2023-04-28T19:39:43.438Z,11.05
2023-04-28T19:44:50.892Z,13.77
2023-04-28T19:50:06.548Z,8.05
2023-04-28T19:55:20.738Z,6.63
2023-04-28T20:00:27.694Z,9.55
2023-04-28T20:05:34.063Z,13.75
2023-04-28T20:10:42.664Z,15.55
2023-04-28T20:15:50.228Z,9.43
2023-04-28T20:20:57.460Z,17.75
2023-04-28T20:26:06.819Z,19.60
2023-04-28T20:31:14.707Z,17.88
2023-04-28T20:36:20.792Z,18.30
2023-04-28T20:41:29.309Z,16.35
2023-04-28T20:46:39.583Z,9.70
2023-04-28T20:51:46.792Z,7.85
2023-04-28T20:56:55.348Z,7.70
2023-04-28T21:02:01.790Z,9.55
2023-04-28T21:07:07.747Z,7.18
2023-04-28T21:12:16.605Z,10.95
2023-04-28T21:17:23.155Z,9.18
2023-04-28T21:22:31.590Z,13.85
2023-04-28T21:27:40.049Z,11.45
2023-04-28T21:32:47.611Z,11.73
2023-04-28T21:37:55.083Z,10.70
2023-04-28T21:43:03.619Z,8.93
2023-04-28T21:48:09.808Z,8.95
2023-04-28T21:53:16.455Z,12.77
2023-04-28T21:58:25.022Z,9.02
2023-04-28T22:03:31.774Z,11.43
2023-04-28T22:08:37.066Z,13.90
2023-04-28T22:13:45.889Z,20.38
2023-04-28T22:18:52.310Z,8.48
2023-04-28T22:23:57.493Z,9.70
2023-04-28T22:29:05.207Z,8.73
2023-04-28T22:34:11.314Z,13.85
2023-04-28T22:39:16.485Z,12.15
2023-04-28T22:44:34.002Z,16.38
2023-04-28T22:49:39.740Z,13.73
2023-04-28T22:54:44.825Z,13.85
2023-04-28T22:59:52.891Z,13.48
2023-04-28T23:04:58.349Z,11.18
2023-04-28T23:10:03.388Z,11.35
2023-04-28T23:15:12.116Z,9.70
2023-04-28T23:20:17.482Z,8.15
2023-04-28T23:25:23.063Z,9.07
2023-04-28T23:30:31.006Z,10.20
2023-04-28T23:35:36.665Z,8.35
2023-04-28T23:40:41.887Z,7.70
2023-04-28T23:45:49.689Z,6.35
2023-04-28T23:56:00.762Z,10.88
